createdAt,value
2023-05-19T00:02:25.211Z,65.88
2023-05-19T00:07:30.020Z,67.83
2023-05-19T00:12:31.462Z,68.80
2023-05-19T00:17:33.670Z,66.08
2023-05-19T00:22:36.168Z,66.02
2023-05-19T00:27:37.002Z,66.40
2023-05-19T00:32:38.060Z,67.29
2023-05-19T00:37:38.931Z,68.26
2023-05-19T00:42:40.750Z,69.33
2023-05-19T00:47:45.123Z,69.37
2023-05-19T00:52:46.192Z,70.10
2023-05-19T00:57:49.014Z,71.13
2023-05-19T01:02:50.462Z,71.16
2023-05-19T01:07:52.873Z,72.30
2023-05-19T01:12:53.687Z,71.03
2023-05-19T01:18:11.014Z,70.97
2023-05-19T01:24:54.202Z,71.62
2023-05-19T01:30:24.879Z,71.46
2023-05-19T01:35:27.839Z,73.58
2023-05-19T01:40:30.366Z,73.62
2023-05-19T01:45:32.879Z,73.87
2023-05-19T01:50:34.036Z,75.85
2023-05-19T01:55:43.214Z,74.79
2023-05-19T02:01:02.443Z,73.62
2023-05-19T02:08:09.553Z,76.55
2023-05-19T02:13:13.740Z,79.33
2023-05-19T02:18:17.134Z,80.26
2023-05-19T02:23:18.540Z,78.31
2023-05-19T02:28:19.458Z,77.84
2023-05-19T02:33:23.763Z,79.43
2023-05-19T02:38:25.020Z,78.03
2023-05-19T02:43:29.720Z,78.89
2023-05-19T02:48:30.658Z,81.70
2023-05-19T02:53:31.514Z,82.64
2023-05-19T02:58:32.354Z,81.94
2023-05-19T03:03:33.381Z,83.32
2023-05-19T03:08:35.455Z,81.92
2023-05-19T03:13:36.279Z,80.32
2023-05-19T03:18:37.706Z,80.25
2023-05-19T03:23:38.614Z,80.56
2023-05-19T03:28:39.640Z,80.63
2023-05-19T03:33:40.467Z,81.46
2023-05-19T03:38:41.542Z,83.08
2023-05-19T03:43:42.598Z,84.79
2023-05-19T03:48:44.357Z,86.16
2023-05-19T03:54:38.113Z,86.40
2023-05-19T03:59:40.570Z,87.81
2023-05-19T04:04:41.401Z,87.66
2023-05-19T04:09:42.505Z,88.56
2023-05-19T04:14:43.479Z,88.76
2023-05-19T04:19:44.346Z,91.41
2023-05-19T04:24:45.657Z,91.30
2023-05-19T04:29:47.552Z,89.29
2023-05-19T04:34:48.424Z,89.36
2023-05-19T04:39:54.773Z,86.21
2023-05-19T04:44:57.430Z,86.05
2023-05-19T04:50:03.341Z,84.81
2023-05-19T04:55:05.010Z,86.40
2023-05-19T05:00:12.014Z,82.21
2023-05-19T05:05:20.338Z,81.30
2023-05-19T05:10:21.324Z,79.93
2023-05-19T05:15:23.597Z,81.87
2023-05-19T05:20:25.854Z,82.34
2023-05-19T05:25:27.650Z,78.99
2023-05-19T05:30:28.726Z,78.57
2023-05-19T05:35:31.174Z,82.46
2023-05-19T05:40:32.606Z,86.00
2023-05-19T05:45:33.899Z,80.24
2023-05-19T05:50:36.410Z,76.60
2023-05-19T05:55:38.807Z,74.57
2023-05-19T06:00:42.843Z,73.56
2023-05-19T06:05:43.885Z,64.19
2023-05-19T06:10:47.379Z,64.92
2023-05-19T06:15:50.204Z,61.68
2023-05-19T06:20:56.076Z,58.62
2023-05-19T06:25:57.111Z,61.19
2023-05-19T06:30:59.304Z,61.11
2023-05-19T06:41:31.312Z,58.34
2023-05-19T06:46:32.573Z,60.42
2023-05-19T06:51:34.678Z,57.42
2023-05-19T06:56:35.901Z,59.62
2023-05-19T07:01:37.271Z,59.65
2023-05-19T07:06:38.584Z,57.57
2023-05-19T07:11:40.810Z,62.39
2023-05-19T07:16:42.944Z,57.99
2023-05-19T07:21:43.951Z,56.98
2023-05-19T07:26:44.874Z,55.77
2023-05-19T07:31:45.863Z,55.72
2023-05-19T07:36:46.715Z,59.78
2023-05-19T07:41:53.737Z,57.73
2023-05-19T07:46:54.754Z,59.38
2023-05-19T07:51:56.553Z,56.83
2023-05-19T07:56:57.347Z,57.64
2023-05-19T08:01:58.329Z,59.03
2023-05-19T08:06:59.217Z,58.07
2023-05-19T08:12:01.008Z,56.50
2023-05-19T08:17:01.802Z,56.71
2023-05-19T08:22:03.008Z,56.11
2023-05-19T08:27:04.211Z,60.52
2023-05-19T08:32:05.236Z,56.53
2023-05-19T08:37:06.955Z,56.66
2023-05-19T08:42:09.181Z,56.20
2023-05-19T08:47:13.060Z,55.11
2023-05-19T08:53:47.847Z,56.44
2023-05-19T08:58:50.411Z,52.23
2023-05-19T09:03:51.694Z,51.68
2023-05-19T09:08:52.638Z,51.07
2023-05-19T09:13:53.628Z,50.21
2023-05-19T09:18:56.091Z,51.14
2023-05-19T09:24:04.223Z,54.56
2023-05-19T09:29:17.415Z,49.31
2023-05-19T09:34:18.635Z,52.39
2023-05-19T09:39:21.935Z,56.90
2023-05-19T09:44:28.454Z,52.27
2023-05-19T09:49:30.474Z,51.43
2023-05-19T09:54:33.420Z,50.49
2023-05-19T09:59:34.953Z,50.01
2023-05-19T10:04:36.252Z,49.70
2023-05-19T10:09:38.560Z,49.57
2023-05-19T10:14:40.053Z,47.58
2023-05-19T10:19:43.071Z,54.00
2023-05-19T10:24:43.984Z,46.06
2023-05-19T10:29:49.063Z,46.29
2023-05-19T10:35:15.807Z,48.31
2023-05-19T10:40:25.500Z,49.39
2023-05-19T10:45:30.434Z,46.20
2023-05-19T10:50:37.292Z,47.11
2023-05-19T10:55:46.941Z,48.71
2023-05-19T11:00:59.901Z,44.82
2023-05-19T11:07:52.324Z,46.15
2023-05-19T11:12:58.197Z,45.64
2023-05-19T11:18:01.193Z,43.24
2023-05-19T11:23:06.799Z,44.26
2023-05-19T11:28:09.494Z,43.88
2023-05-19T11:33:10.938Z,44.37
2023-05-19T11:38:13.297Z,45.63
2023-05-19T11:43:14.295Z,44.12
2023-05-19T11:48:16.623Z,45.82
2023-05-19T11:53:18.782Z,46.14
2023-05-19T11:58:26.369Z,44.47
2023-05-19T12:03:27.848Z,43.42
2023-05-19T12:08:29.125Z,41.97
2023-05-19T12:13:29.978Z,43.87
2023-05-19T12:18:36.619Z,41.68
2023-05-19T12:23:38.332Z,42.42
2023-05-19T12:28:39.176Z,42.46
2023-05-19T12:33:40.948Z,44.91
2023-05-19T12:38:42.420Z,44.68
2023-05-19T12:43:43.235Z,45.25
2023-05-19T12:48:45.174Z,44.54
2023-05-19T12:53:46.694Z,42.87
2023-05-19T12:58:53.795Z,41.65
2023-05-19T13:03:55.014Z,43.60
2023-05-19T13:08:56.328Z,42.52
2023-05-19T13:13:57.377Z,42.94
2023-05-19T13:18:59.380Z,42.67
2023-05-19T13:24:00.328Z,43.01
2023-05-19T13:29:02.217Z,42.08
2023-05-19T13:34:03.114Z,41.92
2023-05-19T13:39:04.011Z,43.85
2023-05-19T13:44:05.199Z,44.13
2023-05-19T13:49:06.490Z,43.46
2023-05-19T13:54:07.381Z,44.20
2023-05-19T13:59:08.186Z,43.67
2023-05-19T14:04:09.807Z,45.06
2023-05-19T14:09:11.673Z,45.06
2023-05-19T14:14:12.842Z,45.33
2023-05-19T14:19:14.070Z,44.28
2023-05-19T14:24:14.882Z,46.44
2023-05-19T14:29:15.998Z,45.45
2023-05-19T14:34:20.111Z,46.69
2023-05-19T14:39:20.934Z,47.91
2023-05-19T14:44:21.758Z,45.45
2023-05-19T14:49:25.683Z,46.44
2023-05-19T14:54:26.493Z,48.08
2023-05-19T14:59:28.802Z,46.26
2023-05-19T15:04:29.828Z,47.49
2023-05-19T15:09:31.013Z,47.87
2023-05-19T15:14:31.823Z,48.28
2023-05-19T15:19:33.002Z,46.73
2023-05-19T15:24:34.018Z,47.24
2023-05-19T15:29:35.102Z,47.15
2023-05-19T15:34:36.095Z,47.00
2023-05-19T15:39:36.998Z,47.70
2023-05-19T15:44:37.952Z,48.07
2023-05-19T15:49:38.956Z,47.76
2023-05-19T15:54:40.071Z,47.78
2023-05-19T15:59:40.899Z,49.48
2023-05-19T16:04:41.671Z,47.92
2023-05-19T16:09:42.781Z,48.68
2023-05-19T16:14:43.587Z,48.56
2023-05-19T16:19:44.972Z,49.34
2023-05-19T16:24:45.798Z,49.95
2023-05-19T16:29:46.695Z,48.32
2023-05-19T16:34:47.477Z,48.49
2023-05-19T16:39:48.382Z,49.30
2023-05-19T16:44:49.286Z,50.20
2023-05-19T16:49:50.652Z,49.03
2023-05-19T16:54:51.518Z,50.18
2023-05-19T16:59:52.604Z,51.12
2023-05-19T17:04:54.545Z,51.25
2023-05-19T17:09:56.034Z,51.30
2023-05-19T17:14:57.077Z,51.22
2023-05-19T17:19:58.151Z,51.46
2023-05-19T17:24:58.947Z,50.73
2023-05-19T17:29:59.762Z,51.71
2023-05-19T17:35:02.648Z,51.89
2023-05-19T17:40:04.327Z,51.66
2023-05-19T17:45:06.816Z,51.71
2023-05-19T17:50:08.884Z,52.19
2023-05-19T17:55:11.148Z,52.43
2023-05-19T18:00:13.076Z,52.10
2023-05-19T18:05:15.035Z,51.93
2023-05-19T18:10:16.814Z,52.81
2023-05-19T18:15:18.437Z,52.68
2023-05-19T18:20:19.613Z,53.80
2023-05-19T18:25:20.468Z,52.57
2023-05-19T18:30:22.575Z,52.83
2023-05-19T18:35:23.465Z,53.82
2023-05-19T18:40:24.470Z,54.33
2023-05-19T18:45:25.281Z,52.68
2023-05-19T18:50:26.311Z,53.35
2023-05-19T18:55:27.138Z,53.46
2023-05-19T19:00:28.386Z,52.72
2023-05-19T19:05:29.638Z,52.55
2023-05-19T19:10:33.686Z,53.65
2023-05-19T19:15:34.950Z,53.92
2023-05-19T19:20:35.887Z,54.44
2023-05-19T19:25:36.882Z,53.97
2023-05-19T19:30:37.719Z,55.52
2023-05-19T19:35:38.573Z,56.80
2023-05-19T19:40:39.545Z,55.79
2023-05-19T19:45:40.850Z,55.96
2023-05-19T19:50:41.834Z,55.82
2023-05-19T19:55:42.665Z,56.22
2023-05-19T20:00:43.526Z,57.35
2023-05-19T20:05:44.358Z,55.16
2023-05-19T20:10:47.236Z,55.74
2023-05-19T20:15:48.155Z,55.88
2023-05-19T20:20:49.143Z,56.15
2023-05-19T20:26:06.662Z,56.86
2023-05-19T20:31:11.614Z,56.67
2023-05-19T20:36:12.469Z,55.73
2023-05-19T20:41:13.857Z,55.68
2023-05-19T20:46:14.779Z,54.89
2023-05-19T20:51:15.973Z,54.23
2023-05-19T20:56:16.783Z,53.45
2023-05-19T21:01:17.672Z,52.97
2023-05-19T21:06:18.552Z,52.86
2023-05-19T21:11:20.345Z,52.34
2023-05-19T21:16:21.703Z,52.20
2023-05-19T21:21:22.953Z,52.25
2023-05-19T21:26:23.824Z,52.91
2023-05-19T21:31:24.782Z,53.18
2023-05-19T21:36:25.948Z,53.13
2023-05-19T21:41:26.778Z,53.16
2023-05-19T21:46:28.366Z,53.78
2023-05-19T21:51:31.263Z,53.99
2023-05-19T21:56:32.090Z,54.51
2023-05-19T22:01:33.019Z,54.40
2023-05-19T22:06:34.092Z,54.66
2023-05-19T22:11:35.110Z,54.97
2023-05-19T22:16:36.024Z,55.08
2023-05-19T22:21:37.019Z,55.21
2023-05-19T22:26:41.702Z,55.75
2023-05-19T22:31:42.580Z,55.15
2023-05-19T22:36:45.206Z,55.76
2023-05-19T22:41:46.042Z,56.18
2023-05-19T22:46:46.874Z,57.08
2023-05-19T22:51:48.479Z,56.30
2023-05-19T22:56:49.448Z,56.55
2023-05-19T23:01:50.271Z,56.89
2023-05-19T23:06:51.401Z,57.81
2023-05-19T23:11:53.128Z,58.34
2023-05-19T23:16:53.934Z,58.11
2023-05-19T23:21:55.134Z,57.28
2023-05-19T23:26:55.990Z,58.56
2023-05-19T23:31:56.923Z,58.75
2023-05-19T23:36:57.739Z,60.46
2023-05-19T23:41:58.586Z,61.24
2023-05-19T23:46:59.458Z,60.59
2023-05-19T23:52:00.515Z,61.33
2023-05-19T23:57:02.159Z,62.39
